sensor_id;sensor_type;location;lat;lon;timestamp;pressure;altitude;pressure_sealevel;temperature;humidity
11672;BME280;5892;43.412;24.612;2023-04-27T00:00:01;99724.63;;;10.46;100.00
11672;BME280;5892;43.412;24.612;2023-04-27T00:02:28;99697.88;;;10.26;100.00
11672;BME280;5892;43.412;24.612;2023-04-27T00:04:56;99728.63;;;10.32;100.00
11672;BME280;5892;43.412;24.612;2023-04-27T00:07:23;99723.31;;;10.27;100.00
11672;BME280;5892;43.412;24.612;2023-04-27T00:09:50;99723.81;;;10.20;100.00
11672;BME280;5892;43.412;24.612;2023-04-27T00:12:17;99732.03;;;10.20;100.00
11672;BME280;5892;43.412;24.612;2023-04-27T00:14:45;99733.81;;;10.25;100.00
11672;BME280;5892;43.412;24.612;2023-04-27T00:17:12;99737.81;;;10.18;100.00
11672;BME280;5892;43.412;24.612;2023-04-27T00:19:39;99738.25;;;10.12;100.00
11672;BME280;5892;43.412;24.612;2023-04-27T00:22:06;99738.75;;;10.14;100.00
11672;BME280;5892;43.412;24.612;2023-04-27T00:24:33;99727.53;;;10.24;100.00
11672;BME280;5892;43.412;24.612;2023-04-27T00:27:00;99730.88;;;10.21;100.00
11672;BME280;5892;43.412;24.612;2023-04-27T00:29:27;99732.03;;;10.20;100.00
11672;BME280;5892;43.412;24.612;2023-04-27T00:31:55;99725.91;;;10.23;100.00
11672;BME280;5892;43.412;24.612;2023-04-27T00:34:22;99730.72;;;10.26;100.00
11672;BME280;5892;43.412;24.612;2023-04-27T00:36:49;99724.28;;;10.22;100.00
11672;BME280;5892;43.412;24.612;2023-04-27T00:39:16;99741.06;;;10.29;100.00
11672;BME280;5892;43.412;24.612;2023-04-27T00:41:43;99725.91;;;10.23;100.00
11672;BME280;5892;43.412;24.612;2023-04-27T00:44:10;99724.28;;;10.22;100.00
11672;BME280;5892;43.412;24.612;2023-04-27T00:46:37;99717.97;;;10.13;100.00
11672;BME280;5892;43.412;24.612;2023-04-27T00:49:05;99728.97;;;10.30;100.00
11672;BME280;5892;43.412;24.612;2023-04-27T00:51:32;99725.59;;;10.25;100.00
11672;BME280;5892;43.412;24.612;2023-04-27T00:53:59;99721.09;;;10.20;100.00
11672;BME280;5892;43.412;24.612;2023-04-27T00:56:26;99725.56;;;10.33;100.00
11672;BME280;5892;43.412;24.612;2023-04-27T00:58:53;99719.94;;;10.30;100.00
11672;BME280;5892;43.412;24.612;2023-04-27T01:01:20;99735.91;;;10.36;100.00
11672;BME280;5892;43.412;24.612;2023-04-27T01:03:47;99714.63;;;10.25;100.00
11672;BME280;5892;43.412;24.612;2023-04-27T01:06:16;99739.75;;;10.35;100.00
11672;BME280;5892;43.412;24.612;2023-04-27T01:08:42;99719.59;;;10.14;100.00
11672;BME280;5892;43.412;24.612;2023-04-27T01:11:10;99689.47;;;9.97;100.00
11672;BME280;5892;43.412;24.612;2023-04-27T01:13:37;99751.69;;;10.39;100.00
11672;BME280;5892;43.412;24.612;2023-04-27T01:16:05;99745.06;;;10.49;100.00
11672;BME280;5892;43.412;24.612;2023-04-27T01:18:32;99757.50;;;10.46;100.00
11672;BME280;5892;43.412;24.612;2023-04-27T01:20:59;99762.16;;;10.46;100.00
11672;BME280;5892;43.412;24.612;2023-04-27T01:23:28;99764.09;;;10.45;100.00
11672;BME280;5892;43.412;24.612;2023-04-27T01:25:55;99770.19;;;10.42;100.00
11672;BME280;5892;43.412;24.612;2023-04-27T01:28:22;99766.34;;;10.35;100.00
11672;BME280;5892;43.412;24.612;2023-04-27T01:30:49;99781.16;;;10.34;100.00
11672;BME280;5892;43.412;24.612;2023-04-27T01:33:16;99775.53;;;10.30;100.00
11672;BME280;5892;43.412;24.612;2023-04-27T01:35:43;99715.06;;;9.92;100.00
11672;BME280;5892;43.412;24.612;2023-04-27T01:38:10;99777.78;;;10.28;100.00
11672;BME280;5892;43.412;24.612;2023-04-27T01:40:39;99777.78;;;10.28;100.00
11672;BME280;5892;43.412;24.612;2023-04-27T01:43:05;99769.25;;;10.30;100.00
11672;BME280;5892;43.412;24.612;2023-04-27T01:45:32;99747.59;;;10.11;100.00
11672;BME280;5892;43.412;24.612;2023-04-27T01:47:59;99764.84;;;10.11;100.00
11672;BME280;5892;43.412;24.612;2023-04-27T01:50:26;99764.53;;;10.13;100.00
11672;BME280;5892;43.412;24.612;2023-04-27T01:52:53;99715.00;;;9.58;100.00
11672;BME280;5892;43.412;24.612;2023-04-27T01:55:20;99733.25;;;9.88;100.00
11672;BME280;5892;43.412;24.612;2023-04-27T01:57:48;99757.31;;;10.17;100.00
11672;BME280;5892;43.412;24.612;2023-04-27T02:00:15;99757.81;;;10.19;100.00
11672;BME280;5892;43.412;24.612;2023-04-27T02:02:42;99761.66;;;10.18;100.00
11672;BME280;5892;43.412;24.612;2023-04-27T02:05:09;99759.88;;;10.22;100.00
11672;BME280;5892;43.412;24.612;2023-04-27T02:07:36;99762.78;;;10.17;100.00
11672;BME280;5892;43.412;24.612;2023-04-27T02:10:04;99746.31;;;10.08;100.00
11672;BME280;5892;43.412;24.612;2023-04-27T02:12:31;99761.66;;;10.18;100.00
11672;BME280;5892;43.412;24.612;2023-04-27T02:14:59;99771.94;;;10.21;100.00
11672;BME280;5892;43.412;24.612;2023-04-27T02:17:27;99742.59;;;9.96;100.00
11672;BME280;5892;43.412;24.612;2023-04-27T02:19:55;99729.09;;;9.99;100.00
11672;BME280;5892;43.412;24.612;2023-04-27T02:22:22;99780.31;;;10.16;100.00
11672;BME280;5892;43.412;24.612;2023-04-27T02:24:49;99768.75;;;10.19;100.00
11672;BME280;5892;43.412;24.612;2023-04-27T02:27:16;99772.63;;;10.18;100.00
11672;BME280;5892;43.412;24.612;2023-04-27T02:29:43;99759.22;;;10.16;100.00
11672;BME280;5892;43.412;24.612;2023-04-27T02:32:11;99764.22;;;10.14;100.00
11672;BME280;5892;43.412;24.612;2023-04-27T02:34:38;99758.72;;;10.06;100.00
11672;BME280;5892;43.412;24.612;2023-04-27T02:37:05;99766.75;;;10.11;100.00
11672;BME280;5892;43.412;24.612;2023-04-27T02:39:34;99774.84;;;10.16;100.00
11672;BME280;5892;43.412;24.612;2023-04-27T02:42:01;99777.28;;;10.17;100.00
11672;BME280;5892;43.412;24.612;2023-04-27T02:44:28;99780.31;;;10.16;100.00
11672;BME280;5892;43.412;24.612;2023-04-27T02:46:55;99777.91;;;10.14;100.00
11672;BME280;5892;43.412;24.612;2023-04-27T02:49:23;99783.38;;;10.14;100.00
11672;BME280;5892;43.412;24.612;2023-04-27T02:51:50;99783.84;;;10.08;100.00
11672;BME280;5892;43.412;24.612;2023-04-27T02:54:17;99785.13;;;10.10;100.00
11672;BME280;5892;43.412;24.612;2023-04-27T02:56:44;99734.50;;;9.73;100.00
11672;BME280;5892;43.412;24.612;2023-04-27T02:59:11;99785.41;;;10.00;100.00
11672;BME280;5892;43.412;24.612;2023-04-27T03:01:37;99765.28;;;9.88;100.00
11672;BME280;5892;43.412;24.612;2023-04-27T03:04:04;99771.59;;;10.05;100.00
11672;BME280;5892;43.412;24.612;2023-04-27T03:06:33;99764.34;;;9.92;100.00
11672;BME280;5892;43.412;24.612;2023-04-27T03:09:00;99782.88;;;10.04;100.00
11672;BME280;5892;43.412;24.612;2023-04-27T03:11:28;99747.25;;;9.78;100.00
11672;BME280;5892;43.412;24.612;2023-04-27T03:13:55;99781.91;;;10.08;100.00
11672;BME280;5892;43.412;24.612;2023-04-27T03:16:22;99790.13;;;10.08;100.00
11672;BME280;5892;43.412;24.612;2023-04-27T03:18:49;99790.75;;;10.05;100.00
11672;BME280;5892;43.412;24.612;2023-04-27T03:21:16;99785.41;;;9.92;100.00
11672;BME280;5892;43.412;24.612;2023-04-27T03:23:44;99783.19;;;9.94;100.00
11672;BME280;5892;43.412;24.612;2023-04-27T03:26:12;99777.00;;;9.79;100.00
11672;BME280;5892;43.412;24.612;2023-04-27T03:28:39;99799.09;;;9.92;100.00
11672;BME280;5892;43.412;24.612;2023-04-27T03:31:07;99788.81;;;9.89;100.00
11672;BME280;5892;43.412;24.612;2023-04-27T03:33:34;99745.06;;;9.58;100.00
11672;BME280;5892;43.412;24.612;2023-04-27T03:36:02;99786.38;;;9.78;100.00
11672;BME280;5892;43.412;24.612;2023-04-27T03:38:30;99791.84;;;9.78;100.00
11672;BME280;5892;43.412;24.612;2023-04-27T03:40:58;99810.03;;;9.92;100.00
11672;BME280;5892;43.412;24.612;2023-04-27T03:43:26;99822.63;;;9.93;100.00
11672;BME280;5892;43.412;24.612;2023-04-27T03:45:53;99812.44;;;9.85;100.00
11672;BME280;5892;43.412;24.612;2023-04-27T03:48:20;99805.53;;;9.87;100.00
11672;BME280;5892;43.412;24.612;2023-04-27T03:50:48;99821.00;;;9.92;100.00
11672;BME280;5892;43.412;24.612;2023-04-27T03:53:15;99826.03;;;10.07;100.00
11672;BME280;5892;43.412;24.612;2023-04-27T03:55:43;99834.88;;;10.04;100.00
11672;BME280;5892;43.412;24.612;2023-04-27T03:58:11;99820.69;;;10.02;100.00
11672;BME280;5892;43.412;24.612;2023-04-27T04:00:38;99821.50;;;9.94;100.00
11672;BME280;5892;43.412;24.612;2023-04-27T04:03:06;99833.88;;;9.91;100.00
11672;BME280;5892;43.412;24.612;2023-04-27T04:05:33;99846.16;;;10.11;100.00
11672;BME280;5892;43.412;24.612;2023-04-27T04:08:00;99850.97;;;10.05;100.00
11672;BME280;5892;43.412;24.612;2023-04-27T04:10:27;99847.78;;;10.12;100.00
11672;BME280;5892;43.412;24.612;2023-04-27T04:12:54;99821.81;;;9.92;100.00
11672;BME280;5892;43.412;24.612;2023-04-27T04:15:22;99840.22;;;10.09;100.00
11672;BME280;5892;43.412;24.612;2023-04-27T04:17:50;99860.22;;;10.18;100.00
11672;BME280;5892;43.412;24.612;2023-04-27T04:20:16;99852.31;;;10.16;100.00
11672;BME280;5892;43.412;24.612;2023-04-27T04:22:43;99860.03;;;10.14;100.00
11672;BME280;5892;43.412;24.612;2023-04-27T04:25:10;99859.22;;;10.14;100.00
11672;BME280;5892;43.412;24.612;2023-04-27T04:27:37;99871.94;;;10.10;100.00
11672;BME280;5892;43.412;24.612;2023-04-27T04:30:05;99869.31;;;9.96;100.00
11672;BME280;5892;43.412;24.612;2023-04-27T04:32:34;99873.34;;;9.99;100.00
11672;BME280;5892;43.412;24.612;2023-04-27T04:35:02;99863.31;;;9.86;100.00
11672;BME280;5892;43.412;24.612;2023-04-27T04:37:32;99855.16;;;9.63;100.00
11672;BME280;5892;43.412;24.612;2023-04-27T04:40:05;99843.66;;;9.44;100.00
11672;BME280;5892;43.412;24.612;2023-04-27T04:42:34;99872.88;;;9.66;100.00
11672;BME280;5892;43.412;24.612;2023-04-27T04:45:03;99869.16;;;9.62;100.00
11672;BME280;5892;43.412;24.612;2023-04-27T04:47:30;99852.44;;;9.63;100.00
11672;BME280;5892;43.412;24.612;2023-04-27T04:50:00;99870.53;;;9.82;100.00
11672;BME280;5892;43.412;24.612;2023-04-27T04:52:27;99839.94;;;9.79;100.00
11672;BME280;5892;43.412;24.612;2023-04-27T04:54:54;99786.22;;;9.44;100.00
11672;BME280;5892;43.412;24.612;2023-04-27T04:57:20;99772.25;;;9.54;100.00
11672;BME280;5892;43.412;24.612;2023-04-27T04:59:47;99867.84;;;10.64;100.00
11672;BME280;5892;43.412;24.612;2023-04-27T05:02:15;99846.75;;;10.65;100.00
11672;BME280;5892;43.412;24.612;2023-04-27T05:04:42;99887.53;;;11.18;100.00
11672;BME280;5892;43.412;24.612;2023-04-27T05:07:11;99794.03;;;10.59;100.00
11672;BME280;5892;43.412;24.612;2023-04-27T05:09:41;99838.81;;;11.23;100.00
11672;BME280;5892;43.412;24.612;2023-04-27T05:12:08;99807.69;;;11.11;100.00
11672;BME280;5892;43.412;24.612;2023-04-27T05:14:35;99772.72;;;10.99;100.00
11672;BME280;5892;43.412;24.612;2023-04-27T05:17:02;99834.53;;;11.43;100.00
11672;BME280;5892;43.412;24.612;2023-04-27T05:19:29;99903.00;;;12.03;100.00
11672;BME280;5892;43.412;24.612;2023-04-27T05:21:56;99882.16;;;12.02;100.00
11672;BME280;5892;43.412;24.612;2023-04-27T05:24:25;99912.16;;;12.37;100.00
11672;BME280;5892;43.412;24.612;2023-04-27T05:26:52;99907.16;;;12.39;100.00
11672;BME280;5892;43.412;24.612;2023-04-27T05:29:19;99918.03;;;12.26;100.00
11672;BME280;5892;43.412;24.612;2023-04-27T05:31:48;99879.41;;;12.02;100.00
11672;BME280;5892;43.412;24.612;2023-04-27T05:34:15;99913.78;;;12.38;100.00
11672;BME280;5892;43.412;24.612;2023-04-27T05:36:43;99914.53;;;12.17;100.00
11672;BME280;5892;43.412;24.612;2023-04-27T05:39:11;99906.88;;;12.02;100.00
11672;BME280;5892;43.412;24.612;2023-04-27T05:41:40;99919.38;;;12.20;100.00
11672;BME280;5892;43.412;24.612;2023-04-27T05:44:06;99914.84;;;12.24;100.00
11672;BME280;5892;43.412;24.612;2023-04-27T05:46:35;99900.75;;;12.26;100.00
11672;BME280;5892;43.412;24.612;2023-04-27T05:49:02;99921.56;;;12.36;100.00
11672;BME280;5892;43.412;24.612;2023-04-27T05:51:28;99930.41;;;12.41;100.00
11672;BME280;5892;43.412;24.612;2023-04-27T05:53:56;99936.44;;;12.35;100.00
11672;BME280;5892;43.412;24.612;2023-04-27T05:56:24;99932.22;;;12.37;100.00
11672;BME280;5892;43.412;24.612;2023-04-27T05:58:52;99937.50;;;12.51;100.00
11672;BME280;5892;43.412;24.612;2023-04-27T06:01:19;99931.59;;;12.31;100.00
11672;BME280;5892;43.412;24.612;2023-04-27T06:03:46;99940.88;;;12.48;100.00
11672;BME280;5892;43.412;24.612;2023-04-27T06:06:13;99833.91;;;11.93;100.00
11672;BME280;5892;43.412;24.612;2023-04-27T06:08:40;99884.78;;;12.49;98.62
11672;BME280;5892;43.412;24.612;2023-04-27T06:11:07;99935.84;;;12.79;99.44
11672;BME280;5892;43.412;24.612;2023-04-27T06:13:34;99835.53;;;11.85;99.71
11672;BME280;5892;43.412;24.612;2023-04-27T06:16:03;99954.06;;;12.84;100.00
11672;BME280;5892;43.412;24.612;2023-04-27T06:18:30;99912.44;;;12.73;98.90
11672;BME280;5892;43.412;24.612;2023-04-27T06:21:00;99939.50;;;13.12;96.43
11672;BME280;5892;43.412;24.612;2023-04-27T06:23:27;99923.84;;;13.04;96.73
11672;BME280;5892;43.412;24.612;2023-04-27T06:25:54;99911.69;;;13.26;96.69
11672;BME280;5892;43.412;24.612;2023-04-27T06:28:21;99953.25;;;13.66;96.09
11672;BME280;5892;43.412;24.612;2023-04-27T06:30:49;99938.22;;;13.64;94.49
11672;BME280;5892;43.412;24.612;2023-04-27T06:33:17;99932.41;;;13.11;94.14
11672;BME280;5892;43.412;24.612;2023-04-27T06:35:44;99900.91;;;13.00;96.72
11672;BME280;5892;43.412;24.612;2023-04-27T06:38:11;99938.75;;;13.57;84.70
11672;BME280;5892;43.412;24.612;2023-04-27T06:40:38;99888.88;;;13.26;83.76
11672;BME280;5892;43.412;24.612;2023-04-27T06:43:05;99941.06;;;13.55;82.26
11672;BME280;5892;43.412;24.612;2023-04-27T06:45:32;99949.22;;;13.64;81.38
11672;BME280;5892;43.412;24.612;2023-04-27T06:47:59;99943.06;;;13.79;81.92
11672;BME280;5892;43.412;24.612;2023-04-27T06:50:27;99937.59;;;13.91;81.22
11672;BME280;5892;43.412;24.612;2023-04-27T06:52:55;99951.38;;;13.91;81.30
11672;BME280;5892;43.412;24.612;2023-04-27T06:55:22;99940.34;;;13.91;81.76
11672;BME280;5892;43.412;24.612;2023-04-27T06:57:49;99909.34;;;13.70;80.88
11672;BME280;5892;43.412;24.612;2023-04-27T07:00:16;99937.59;;;14.03;80.09
11672;BME280;5892;43.412;24.612;2023-04-27T07:02:44;99951.88;;;14.17;78.69
11672;BME280;5892;43.412;24.612;2023-04-27T07:05:11;99928.88;;;14.13;77.71
11672;BME280;5892;43.412;24.612;2023-04-27T07:07:40;99949.72;;;14.59;76.96
11672;BME280;5892;43.412;24.612;2023-04-27T07:10:08;99940.03;;;14.77;76.99
11672;BME280;5892;43.412;24.612;2023-04-27T07:12:35;99951.31;;;14.72;74.57
11672;BME280;5892;43.412;24.612;2023-04-27T07:15:01;99958.75;;;14.96;73.77
11672;BME280;5892;43.412;24.612;2023-04-27T07:17:30;99936.56;;;14.93;75.62
11672;BME280;5892;43.412;24.612;2023-04-27T07:19:57;99957.59;;;15.37;70.85
11672;BME280;5892;43.412;24.612;2023-04-27T07:22:24;99887.97;;;14.88;68.27
11672;BME280;5892;43.412;24.612;2023-04-27T07:24:52;99924.81;;;15.36;66.36
11672;BME280;5892;43.412;24.612;2023-04-27T07:27:19;99950.56;;;15.52;67.12
11672;BME280;5892;43.412;24.612;2023-04-27T07:29:46;99953.41;;;15.99;66.76
11672;BME280;5892;43.412;24.612;2023-04-27T07:32:13;99951.81;;;16.14;66.48
11672;BME280;5892;43.412;24.612;2023-04-27T07:34:40;99951.63;;;16.53;64.51
11672;BME280;5892;43.412;24.612;2023-04-27T07:37:08;99918.19;;;16.27;65.17
11672;BME280;5892;43.412;24.612;2023-04-27T07:39:34;99948.25;;;16.13;65.68
11672;BME280;5892;43.412;24.612;2023-04-27T07:42:03;99941.63;;;16.33;64.41
11672;BME280;5892;43.412;24.612;2023-04-27T07:44:30;99922.94;;;16.11;65.86
11672;BME280;5892;43.412;24.612;2023-04-27T07:46:57;99938.88;;;16.02;67.79
11672;BME280;5892;43.412;24.612;2023-04-27T07:49:24;99948.50;;;15.92;66.87
11672;BME280;5892;43.412;24.612;2023-04-27T07:51:52;99936.97;;;15.75;66.87
11672;BME280;5892;43.412;24.612;2023-04-27T07:54:19;99906.13;;;15.73;66.06
11672;BME280;5892;43.412;24.612;2023-04-27T07:56:46;99953.72;;;15.82;63.85
11672;BME280;5892;43.412;24.612;2023-04-27T07:59:15;99948.25;;;16.13;63.03
11672;BME280;5892;43.412;24.612;2023-04-27T08:01:42;99952.41;;;15.91;62.59
11672;BME280;5892;43.412;24.612;2023-04-27T08:04:08;99909.34;;;15.75;62.12
11672;BME280;5892;43.412;24.612;2023-04-27T08:06:36;99959.41;;;16.32;64.50
11672;BME280;5892;43.412;24.612;2023-04-27T08:09:03;99948.47;;;16.55;64.23
11672;BME280;5892;43.412;24.612;2023-04-27T08:11:30;99962.44;;;16.43;61.32
11672;BME280;5892;43.412;24.612;2023-04-27T08:13:57;99953.13;;;16.51;59.74
11672;BME280;5892;43.412;24.612;2023-04-27T08:16:26;99910.53;;;15.89;60.48
11672;BME280;5892;43.412;24.612;2023-04-27T08:18:53;99942.34;;;16.30;60.80
11672;BME280;5892;43.412;24.612;2023-04-27T08:21:22;99959.13;;;16.37;60.53
11672;BME280;5892;43.412;24.612;2023-04-27T08:23:50;99964.47;;;16.46;60.56
11672;BME280;5892;43.412;24.612;2023-04-27T08:26:16;99909.19;;;15.99;60.44
11672;BME280;5892;43.412;24.612;2023-04-27T08:28:43;99972.50;;;16.35;60.16
11672;BME280;5892;43.412;24.612;2023-04-27T08:31:11;99962.31;;;16.39;58.59
11672;BME280;5892;43.412;24.612;2023-04-27T08:33:40;99937.91;;;16.41;58.10
11672;BME280;5892;43.412;24.612;2023-04-27T08:36:07;99956.47;;;16.91;56.69
11672;BME280;5892;43.412;24.612;2023-04-27T08:38:34;99953.34;;;16.93;56.27
11672;BME280;5892;43.412;24.612;2023-04-27T08:41:01;99955.94;;;17.21;57.69
11672;BME280;5892;43.412;24.612;2023-04-27T08:43:32;99921.59;;;16.87;55.97
11672;BME280;5892;43.412;24.612;2023-04-27T08:46:00;99952.78;;;17.03;56.98
11672;BME280;5892;43.412;24.612;2023-04-27T08:48:27;99954.69;;;16.99;57.43
11672;BME280;5892;43.412;24.612;2023-04-27T08:50:58;99947.72;;;17.24;56.65
11672;BME280;5892;43.412;24.612;2023-04-27T08:53:27;99871.50;;;17.11;55.24
11672;BME280;5892;43.412;24.612;2023-04-27T08:55:55;99812.59;;;16.57;54.79
11672;BME280;5892;43.412;24.612;2023-04-27T08:58:34;99897.06;;;17.24;54.32
11672;BME280;5892;43.412;24.612;2023-04-27T09:01:04;99916.28;;;17.55;55.04
11672;BME280;5892;43.412;24.612;2023-04-27T09:03:32;99957.47;;;17.57;55.78
11672;BME280;5892;43.412;24.612;2023-04-27T09:06:02;99864.22;;;17.03;55.83
11672;BME280;5892;43.412;24.612;2023-04-27T09:08:40;99859.97;;;17.09;54.44
11672;BME280;5892;43.412;24.612;2023-04-27T09:11:07;99808.56;;;16.89;54.01
11672;BME280;5892;43.412;24.612;2023-04-27T09:13:34;99848.31;;;16.81;55.68
11672;BME280;5892;43.412;24.612;2023-04-27T09:16:01;99807.97;;;16.61;55.56
11672;BME280;5892;43.412;24.612;2023-04-27T09:18:29;99901.09;;;17.26;57.24
11672;BME280;5892;43.412;24.612;2023-04-27T09:20:59;99911.53;;;17.56;55.66
11672;BME280;5892;43.412;24.612;2023-04-27T09:23:33;99921.25;;;17.46;54.19
11672;BME280;5892;43.412;24.612;2023-04-27T09:26:02;99913.88;;;16.61;57.50
11672;BME280;5892;43.412;24.612;2023-04-27T09:28:30;99919.63;;;17.07;58.26
11672;BME280;5892;43.412;24.612;2023-04-27T09:31:00;99898.22;;;17.04;55.53
11672;BME280;5892;43.412;24.612;2023-04-27T09:33:28;99916.66;;;17.15;54.70
11672;BME280;5892;43.412;24.612;2023-04-27T09:35:57;99928.25;;;17.40;54.89
11672;BME280;5892;43.412;24.612;2023-04-27T09:38:26;99871.50;;;17.11;57.10
11672;BME280;5892;43.412;24.612;2023-04-27T09:40:56;99831.47;;;16.70;55.76
11672;BME280;5892;43.412;24.612;2023-04-27T09:43:23;99843.50;;;16.78;56.11
11672;BME280;5892;43.412;24.612;2023-04-27T09:45:52;99929.16;;;17.86;54.97
11672;BME280;5892;43.412;24.612;2023-04-27T09:48:21;99858.00;;;17.29;55.50
11672;BME280;5892;43.412;24.612;2023-04-27T09:50:49;99899.44;;;17.64;54.90
11672;BME280;5892;43.412;24.612;2023-04-27T09:53:19;99871.22;;;17.58;56.48
11672;BME280;5892;43.412;24.612;2023-04-27T09:56:01;99910.31;;;17.72;55.34
11672;BME280;5892;43.412;24.612;2023-04-27T09:58:47;99931.00;;;17.78;54.92
11672;BME280;5892;43.412;24.612;2023-04-27T10:01:25;99863.09;;;17.46;53.55
11672;BME280;5892;43.412;24.612;2023-04-27T10:04:04;99843.91;;;17.79;55.09
11672;BME280;5892;43.412;24.612;2023-04-27T10:06:58;99823.28;;;17.77;54.16
11672;BME280;5892;43.412;24.612;2023-04-27T10:09:33;99884.66;;;18.25;54.17
11672;BME280;5892;43.412;24.612;2023-04-27T10:12:15;99733.63;;;17.20;52.84
11672;BME280;5892;43.412;24.612;2023-04-27T10:14:50;99770.94;;;17.26;52.36
11672;BME280;5892;43.412;24.612;2023-04-27T10:17:18;99803.28;;;17.22;54.64
11672;BME280;5892;43.412;24.612;2023-04-27T10:19:56;99882.44;;;18.34;52.97
11672;BME280;5892;43.412;24.612;2023-04-27T10:22:36;99800.91;;;17.44;51.85
11672;BME280;5892;43.412;24.612;2023-04-27T10:25:16;99766.19;;;17.50;51.89
11672;BME280;5892;43.412;24.612;2023-04-27T10:27:49;99873.56;;;18.25;52.62
11672;BME280;5892;43.412;24.612;2023-04-27T10:30:18;99874.94;;;18.60;52.29
11672;BME280;5892;43.412;24.612;2023-04-27T10:32:50;99877.44;;;18.69;50.97
11672;BME280;5892;43.412;24.612;2023-04-27T10:35:18;99882.53;;;18.14;49.92
11672;BME280;5892;43.412;24.612;2023-04-27T10:37:46;99791.78;;;17.43;52.36
11672;BME280;5892;43.412;24.612;2023-04-27T10:40:14;99867.19;;;17.98;52.35
11672;BME280;5892;43.412;24.612;2023-04-27T10:42:42;99875.38;;;17.68;54.55
11672;BME280;5892;43.412;24.612;2023-04-27T10:45:11;99870.69;;;17.72;55.18
11672;BME280;5892;43.412;24.612;2023-04-27T10:47:41;99866.66;;;17.89;52.45
11672;BME280;5892;43.412;24.612;2023-04-27T10:50:10;99874.41;;;17.38;52.74
11672;BME280;5892;43.412;24.612;2023-04-27T10:52:40;99867.53;;;17.12;53.90
11672;BME280;5892;43.412;24.612;2023-04-27T10:55:14;99867.56;;;17.54;53.42
11672;BME280;5892;43.412;24.612;2023-04-27T10:57:49;99848.56;;;17.53;50.73
11672;BME280;5892;43.412;24.612;2023-04-27T11:00:23;99869.25;;;17.78;51.90
11672;BME280;5892;43.412;24.612;2023-04-27T11:02:50;99850.00;;;17.66;51.53
11672;BME280;5892;43.412;24.612;2023-04-27T11:05:19;99864.34;;;17.71;52.58
11672;BME280;5892;43.412;24.612;2023-04-27T11:07:47;99861.56;;;17.29;53.61
11672;BME280;5892;43.412;24.612;2023-04-27T11:10:15;99864.19;;;17.42;54.17
11672;BME280;5892;43.412;24.612;2023-04-27T11:12:43;99873.50;;;17.33;53.85
11672;BME280;5892;43.412;24.612;2023-04-27T11:15:11;99863.41;;;17.03;55.81
11672;BME280;5892;43.412;24.612;2023-04-27T11:17:40;99867.41;;;17.05;57.05
11672;BME280;5892;43.412;24.612;2023-04-27T11:20:08;99880.31;;;16.98;55.81
11672;BME280;5892;43.412;24.612;2023-04-27T11:22:43;99871.94;;;16.94;56.55
11672;BME280;5892;43.412;24.612;2023-04-27T11:25:10;99874.75;;;16.98;56.10
11672;BME280;5892;43.412;24.612;2023-04-27T11:27:38;99877.91;;;17.15;57.19
11672;BME280;5892;43.412;24.612;2023-04-27T11:30:17;99859.16;;;17.28;55.98
11672;BME280;5892;43.412;24.612;2023-04-27T11:32:45;99879.03;;;17.72;56.33
11672;BME280;5892;43.412;24.612;2023-04-27T11:35:13;99873.00;;;17.89;55.35
11672;BME280;5892;43.412;24.612;2023-04-27T11:37:40;99867.66;;;17.58;49.70
11672;BME280;5892;43.412;24.612;2023-04-27T11:40:08;99872.06;;;17.82;50.42
11672;BME280;5892;43.412;24.612;2023-04-27T11:42:36;99876.31;;;18.21;48.94
11672;BME280;5892;43.412;24.612;2023-04-27T11:45:04;99865.47;;;18.39;49.00
11672;BME280;5892;43.412;24.612;2023-04-27T11:47:32;99855.66;;;18.45;47.70
11672;BME280;5892;43.412;24.612;2023-04-27T11:50:03;99866.94;;;18.55;46.52
11672;BME280;5892;43.412;24.612;2023-04-27T11:52:33;99860.38;;;18.67;47.13
11672;BME280;5892;43.412;24.612;2023-04-27T11:55:05;99862.72;;;18.65;45.20
11672;BME280;5892;43.412;24.612;2023-04-27T11:57:34;99864.16;;;18.85;44.44
11672;BME280;5892;43.412;24.612;2023-04-27T12:00:03;99849.38;;;19.08;43.04
11672;BME280;5892;43.412;24.612;2023-04-27T12:02:35;99853.06;;;18.85;44.57
11672;BME280;5892;43.412;24.612;2023-04-27T12:05:05;99820.56;;;18.03;46.15
11672;BME280;5892;43.412;24.612;2023-04-27T12:07:32;99818.31;;;17.63;46.34
11672;BME280;5892;43.412;24.612;2023-04-27T12:09:59;99868.19;;;16.51;51.92
11672;BME280;5892;43.412;24.612;2023-04-27T12:12:26;99864.34;;;16.05;54.13
11672;BME280;5892;43.412;24.612;2023-04-27T12:14:53;99867.13;;;15.74;58.39
11672;BME280;5892;43.412;24.612;2023-04-27T12:17:20;99862.22;;;15.40;61.16
11672;BME280;5892;43.412;24.612;2023-04-27T12:19:47;99866.28;;;15.30;62.43
11672;BME280;5892;43.412;24.612;2023-04-27T12:22:15;99842.19;;;15.43;60.33
11672;BME280;5892;43.412;24.612;2023-04-27T12:24:42;99862.06;;;15.48;60.61
11672;BME280;5892;43.412;24.612;2023-04-27T12:27:09;99872.25;;;15.76;60.82
11672;BME280;5892;43.412;24.612;2023-04-27T12:29:37;99813.22;;;15.64;60.42
11672;BME280;5892;43.412;24.612;2023-04-27T12:32:04;99836.44;;;15.20;60.31
11672;BME280;5892;43.412;24.612;2023-04-27T12:34:32;99780.44;;;14.24;62.57
11672;BME280;5892;43.412;24.612;2023-04-27T12:36:59;99852.78;;;15.13;62.79
11672;BME280;5892;43.412;24.612;2023-04-27T12:39:27;99859.56;;;15.43;61.26
11672;BME280;5892;43.412;24.612;2023-04-27T12:41:55;99871.38;;;15.72;60.43
11672;BME280;5892;43.412;24.612;2023-04-27T12:44:22;99859.78;;;15.66;61.08
11672;BME280;5892;43.412;24.612;2023-04-27T12:46:51;99803.25;;;15.32;60.09
11672;BME280;5892;43.412;24.612;2023-04-27T12:49:18;99869.78;;;15.27;64.47
11672;BME280;5892;43.412;24.612;2023-04-27T12:51:45;99868.81;;;14.67;67.61
11672;BME280;5892;43.412;24.612;2023-04-27T12:54:16;99892.47;;;14.80;68.86
11672;BME280;5892;43.412;24.612;2023-04-27T12:56:44;99890.22;;;14.22;77.03
11672;BME280;5892;43.412;24.612;2023-04-27T12:59:11;99896.00;;;13.27;76.15
11672;BME280;5892;43.412;24.612;2023-04-27T13:01:38;99897.06;;;13.34;76.51